^^
Saratoga-Weather Station Historical Data
Daily Summary for September 19, 2021 Units:  Metric    English   Both
Daily Weekly Monthly Yearly Custom
  High: Low: Average:
Temperature: 5.8 °C 2.4 °C 3.5 °C
Dew Point: 4.7 °C 1.7 °C 2.8 °C
Humidity: 97% 92% 95%
Wind Speed: 6.4km/h 0km/h 0.6km/h
Wind Gust: 12.9km/h - -
Wind- - WSW
Pressure: 1018.3 hPa 1015.6 hPa -
Precipitation: 0.0 mm    
Historical Graphs
 
 
Tabular Data for September 19, 2021
Time Temperature Dew Point Pressure Wind Wind Speed Wind Gust Humidity Rainfall Rate (Hourly) solar
00:04 5.4 °C 4.4 °C 1015.6 hPa West 3.2 km/h 12.9 km/h 93% 0.0 mm 0 W/m2
00:09 5.4 °C 4.4 °C 1015.6 hPa WNW 6.4 km/h 11.3 km/h 93% 0.0 mm 0 W/m2
00:14 5.6 °C 4.6 °C 1015.6 hPa WSW 3.2 km/h 12.9 km/h 93% 0.0 mm 0 W/m2
00:19 5.7 °C 4.7 °C 1015.6 hPa NW 6.4 km/h 9.7 km/h 93% 0.0 mm 0 W/m2
00:24 5.8 °C 4.6 °C 1015.6 hPa West 6.4 km/h 6.4 km/h 92% 0.0 mm 0 W/m2
00:29 5.8 °C 4.6 °C 1015.6 hPa WNW 1.4 km/h 4.8 km/h 92% 0.0 mm 0 W/m2
00:34 5.8 °C 4.6 °C 1015.9 hPa WSW 4.7 km/h 6.4 km/h 92% 0.0 mm 0 W/m2
00:39 5.8 °C 4.6 °C 1015.9 hPa West 3.2 km/h 3.2 km/h 92% 0.0 mm 0 W/m2
00:44 5.7 °C 4.5 °C 1015.9 hPa West 3.2 km/h 3.2 km/h 92% 0.0 mm 0 W/m2
00:49 5.7 °C 4.5 °C 1015.9 hPa Calm   3.2 km/h 92% 0.0 mm 0 W/m2
00:54 5.5 °C 4.3 °C 1015.9 hPa Calm     92% 0.0 mm 0 W/m2
00:59 5.3 °C 4.1 °C 1015.9 hPa Calm   3.2 km/h 92% 0.0 mm 0 W/m2
01:04 5.2 °C 4 °C 1016.3 hPa Calm     92% 0.0 mm 0 W/m2
01:09 4.9 °C 3.7 °C 1016.3 hPa Calm     92% 0.0 mm 0 W/m2
01:14 4.8 °C 3.6 °C 1016.3 hPa Calm     92% 0.0 mm 0 W/m2
01:19 4.6 °C 3.4 °C 1016.3 hPa Calm     92% 0.0 mm 0 W/m2
01:24 4.4 °C 3.4 °C 1016.3 hPa Calm     93% 0.0 mm 0 W/m2
01:29 4.3 °C 3.3 °C 1016.3 hPa Calm     93% 0.0 mm 0 W/m2
01:34 4.2 °C 3.2 °C 1016.3 hPa Calm     93% 0.0 mm 0 W/m2
01:39 4.1 °C 3.1 °C 1016.3 hPa Calm   1.6 km/h 93% 0.0 mm 0 W/m2
01:44 4 °C 3 °C 1016.3 hPa West 1.4 km/h 4.8 km/h 93% 0.0 mm 0 W/m2
01:49 3.9 °C 3 °C 1016.3 hPa Calm     94% 0.0 mm 0 W/m2
01:54 3.9 °C 3 °C 1016.3 hPa West 1.4 km/h 4.8 km/h 94% 0.0 mm 0 W/m2
01:59 4 °C 3.1 °C 1016.6 hPa Calm     94% 0.0 mm 0 W/m2
02:04 3.9 °C 3 °C 1016.6 hPa Calm     94% 0.0 mm 0 W/m2
02:09 3.9 °C 3 °C 1016.6 hPa Calm     94% 0.0 mm 0 W/m2
02:14 3.7 °C 2.8 °C 1016.6 hPa Calm     94% 0.0 mm 0 W/m2
02:19 3.7 °C 2.8 °C 1016.6 hPa Calm   1.6 km/h 94% 0.0 mm 0 W/m2
02:24 3.5 °C 2.6 °C 1016.6 hPa Calm     94% 0.0 mm 0 W/m2
02:29 3.4 °C 2.5 °C 1016.6 hPa Calm   3.2 km/h 94% 0.0 mm 0 W/m2
02:34 3.4 °C 2.7 °C 1016.6 hPa Calm     95% 0.0 mm 0 W/m2
02:39 3.5 °C 2.8 °C 1016.6 hPa Calm   3.2 km/h 95% 0.0 mm 0 W/m2
02:44 3.5 °C 2.8 °C 1016.6 hPa Calm     95% 0.0 mm 0 W/m2
02:49 3.4 °C 2.7 °C 1016.9 hPa West 1.4 km/h 3.2 km/h 95% 0.0 mm 0 W/m2
02:54 3.4 °C 2.7 °C 1016.6 hPa Calm     95% 0.0 mm 0 W/m2
02:59 3.3 °C 2.6 °C 1016.9 hPa Calm     95% 0.0 mm 0 W/m2
03:04 3.1 °C 2.4 °C 1016.9 hPa Calm   1.6 km/h 95% 0.0 mm 0 W/m2
03:09 3 °C 2.3 °C 1016.9 hPa Calm   3.2 km/h 95% 0.0 mm 0 W/m2
03:14 3.1 °C 2.4 °C 1016.9 hPa Calm     95% 0.0 mm 0 W/m2
03:19 3.3 °C 2.7 °C 1016.9 hPa WNW 1.4 km/h 4.8 km/h 96% 0.0 mm 0 W/m2
03:24 3.5 °C 2.9 °C 1016.9 hPa West 3.2 km/h 6.4 km/h 96% 0.0 mm 0 W/m2
03:29 3.7 °C 3.1 °C 1016.6 hPa Calm     96% 0.0 mm 0 W/m2
03:34 3.6 °C 3 °C 1016.9 hPa Calm   1.6 km/h 96% 0.0 mm 0 W/m2
03:39 3.6 °C 3 °C 1016.9 hPa Calm     96% 0.0 mm 0 W/m2
03:44 3.5 °C 2.8 °C 1016.9 hPa Calm     95% 0.0 mm 0 W/m2
03:49 3.4 °C 2.7 °C 1016.9 hPa Calm     95% 0.0 mm 0 W/m2
03:54 3.2 °C 2.5 °C 1016.9 hPa Calm     95% 0.0 mm 0 W/m2
03:59 3.1 °C 2.4 °C 1016.9 hPa Calm     95% 0.0 mm 0 W/m2
04:04 3 °C 2.3 °C 1016.9 hPa Calm     95% 0.0 mm 0 W/m2
04:09 2.8 °C 2.1 °C 1016.9 hPa Calm     95% 0.0 mm 0 W/m2
04:14 2.7 °C 2 °C 1016.9 hPa Calm     95% 0.0 mm 0 W/m2
04:19 2.6 °C 1.9 °C 1016.9 hPa Calm     95% 0.0 mm 0 W/m2
04:24 2.5 °C 1.8 °C 1016.9 hPa Calm     95% 0.0 mm 0 W/m2
04:29 2.4 °C 1.7 °C 1016.9 hPa Calm     95% 0.0 mm 0 W/m2
04:34 2.5 °C 1.9 °C 1016.9 hPa Calm     96% 0.0 mm 0 W/m2
04:39 2.5 °C 1.9 °C 1016.9 hPa Calm     96% 0.0 mm 0 W/m2
04:44 2.6 °C 2 °C 1016.9 hPa Calm     96% 0.0 mm 0 W/m2
04:49 2.6 °C 2 °C 1016.9 hPa Calm     96% 0.0 mm 0 W/m2
04:54 2.6 °C 2 °C 1016.9 hPa Calm     96% 0.0 mm 0 W/m2
04:59 2.6 °C 2 °C 1016.9 hPa Calm   3.2 km/h 96% 0.0 mm 0 W/m2
05:04 2.6 °C 2 °C 1016.9 hPa Calm     96% 0.0 mm 0 W/m2
05:09 2.7 °C 2.1 °C 1017.3 hPa Calm   3.2 km/h 96% 0.0 mm 0 W/m2
05:14 2.8 °C 2.2 °C 1017.3 hPa Calm     96% 0.0 mm 0 W/m2
05:19 2.8 °C 2.2 °C 1017.3 hPa Calm   3.2 km/h 96% 0.0 mm 0 W/m2
05:24 2.9 °C 2.3 °C 1017.3 hPa Calm   1.6 km/h 96% 0.0 mm 0 W/m2
05:29 2.9 °C 2.3 °C 1017.3 hPa Calm   3.2 km/h 96% 0.0 mm 0 W/m2
05:34 2.9 °C 2.3 °C 1017.3 hPa Calm     96% 0.0 mm 0 W/m2
05:39 3 °C 2.4 °C 1017.3 hPa Calm     96% 0.0 mm 0 W/m2
05:44 3.1 °C 2.5 °C 1017.3 hPa Calm     96% 0.0 mm 0 W/m2
05:49 3.1 °C 2.5 °C 1017.3 hPa Calm     96% 0.0 mm 0 W/m2
05:54 3.1 °C 2.5 °C 1017.3 hPa Calm     96% 0.0 mm 0 W/m2
05:59 3.1 °C 2.5 °C 1017.3 hPa Calm     96% 0.0 mm 0 W/m2
06:04 3.1 °C 2.5 °C 1017.6 hPa Calm   3.2 km/h 96% 0.0 mm 0 W/m2
06:09 3 °C 2.4 °C 1017.6 hPa Calm     96% 0.0 mm 0 W/m2
06:14 3 °C 2.4 °C 1017.3 hPa Calm   3.2 km/h 96% 0.0 mm 0 W/m2
06:19 2.9 °C 2.3 °C 1017.6 hPa Calm     96% 0.0 mm 0 W/m2
06:24 2.9 °C 2.3 °C 1017.6 hPa Calm     96% 0.0 mm 0 W/m2
06:29 2.9 °C 2.3 °C 1017.6 hPa Calm     96% 0.0 mm 0 W/m2
06:34 2.8 °C 2.2 °C 1017.3 hPa Calm   1.6 km/h 96% 0.0 mm 0 W/m2
06:39 2.6 °C 2 °C 1017.3 hPa Calm     96% 0.0 mm 0 W/m2
06:44 2.6 °C 2 °C 1017.6 hPa Calm   1.6 km/h 96% 0.0 mm 0 W/m2
06:49 2.4 °C 1.8 °C 1017.6 hPa Calm     96% 0.0 mm 0 W/m2
06:54 2.4 °C 1.8 °C 1017.6 hPa Calm     96% 0.0 mm 0 W/m2
06:59 2.4 °C 1.8 °C 1017.6 hPa Calm     96% 0.0 mm 0 W/m2
07:04 2.6 °C 2 °C 1017.6 hPa Calm   1.6 km/h 96% 0.0 mm 0 W/m2
07:09 2.7 °C 2.1 °C 1017.6 hPa Calm     96% 0.0 mm 0 W/m2
07:14 2.7 °C 2.1 °C 1017.6 hPa Calm   1.6 km/h 96% 0.0 mm 0 W/m2
07:19 2.8 °C 2.4 °C 1017.6 hPa West 3.2 km/h 4.8 km/h 97% 0.0 mm 0 W/m2
07:24 2.9 °C 2.3 °C 1018.0 hPa Calm   1.6 km/h 96% 0.0 mm 0 W/m2
07:29 3 °C 2.4 °C 1018.0 hPa Calm     96% 0.0 mm 0 W/m2
07:34 3 °C 2.4 °C 1018.0 hPa Calm     96% 0.0 mm 0 W/m2
07:39 3.1 °C 2.5 °C 1018.0 hPa Calm     96% 0.0 mm 0 W/m2
07:44 3.1 °C 2.5 °C 1018.0 hPa Calm   3.2 km/h 96% 0.0 mm 0 W/m2
07:49 3.1 °C 2.5 °C 1018.0 hPa Calm     96% 0.0 mm 5 W/m2
07:55 3.1 °C 2.5 °C 1018.0 hPa Calm   1.6 km/h 96% 0.0 mm 9 W/m2
08:00 3.1 °C 2.5 °C 1018.0 hPa Calm     96% 0.0 mm 11 W/m2
08:05 3.2 °C 2.8 °C 1018.0 hPa Calm   1.6 km/h 97% 0.0 mm 11 W/m2
08:10 3.2 °C 2.8 °C 1018.0 hPa Calm     97% 0.0 mm 11 W/m2
08:15 3.3 °C 2.9 °C 1018.0 hPa Calm     97% 0.0 mm 18 W/m2
08:20 3.4 °C 3 °C 1018.3 hPa Calm     97% 0.0 mm 21 W/m2
08:25 3.4 °C 3 °C 1018.3 hPa SSE 1.4 km/h 1.6 km/h 97% 0.0 mm 16 W/m2
08:30 3.6 °C 3.2 °C 1018.3 hPa ESE 3.2 km/h 3.2 km/h 97% 0.0 mm 12 W/m2
08:35 3.6 °C 3.2 °C 1018.0 hPa ESE 1.4 km/h 3.2 km/h 97% 0.0 mm 30 W/m2
08:40 3.6 °C 3.2 °C 1018.0 hPa ESE 1.4 km/h 3.2 km/h 97% 0.0 mm 23 W/m2
Juneau County Weather
Compliments of Weather Underground - 4 mb